sensor_id;sensor_type;location;lat;lon;timestamp;temperature;humidity
67557;DHT22;54387;53.526;49.300;2022-12-16T00:00:13;-3.30;65.10
67557;DHT22;54387;53.526;49.300;2022-12-16T00:02:45;-3.30;65.00
67557;DHT22;54387;53.526;49.300;2022-12-16T00:05:17;-3.40;64.90
67557;DHT22;54387;53.526;49.300;2022-12-16T00:07:49;-3.40;65.00
67557;DHT22;54387;53.526;49.300;2022-12-16T00:10:21;-3.40;65.00
67557;DHT22;54387;53.526;49.300;2022-12-16T00:12:52;-3.40;64.90
67557;DHT22;54387;53.526;49.300;2022-12-16T00:15:24;-3.50;64.80
67557;DHT22;54387;53.526;49.300;2022-12-16T00:17:55;-3.50;64.70
67557;DHT22;54387;53.526;49.300;2022-12-16T00:20:26;-3.60;64.80
67557;DHT22;54387;53.526;49.300;2022-12-16T00:22:57;-3.70;64.70
67557;DHT22;54387;53.526;49.300;2022-12-16T00:25:28;-3.70;64.70
67557;DHT22;54387;53.526;49.300;2022-12-16T00:28:00;-3.80;64.60
67557;DHT22;54387;53.526;49.300;2022-12-16T00:30:31;-3.80;64.70
67557;DHT22;54387;53.526;49.300;2022-12-16T00:33:02;-3.90;64.60
67557;DHT22;54387;53.526;49.300;2022-12-16T00:35:34;-3.90;64.70
67557;DHT22;54387;53.526;49.300;2022-12-16T00:38:05;-4.00;64.70
67557;DHT22;54387;53.526;49.300;2022-12-16T00:40:36;-4.10;64.70
67557;DHT22;54387;53.526;49.300;2022-12-16T00:43:07;-4.10;64.70
67557;DHT22;54387;53.526;49.300;2022-12-16T00:45:39;-4.10;64.70
67557;DHT22;54387;53.526;49.300;2022-12-16T00:48:11;-4.20;64.60
67557;DHT22;54387;53.526;49.300;2022-12-16T00:50:48;-4.20;64.50
67557;DHT22;54387;53.526;49.300;2022-12-16T00:53:20;-4.30;64.70
67557;DHT22;54387;53.526;49.300;2022-12-16T00:55:59;-4.30;64.70
67557;DHT22;54387;53.526;49.300;2022-12-16T00:58:31;-4.30;64.70
67557;DHT22;54387;53.526;49.300;2022-12-16T01:01:02;-4.30;64.70
67557;DHT22;54387;53.526;49.300;2022-12-16T01:03:34;-4.30;64.70
67557;DHT22;54387;53.526;49.300;2022-12-16T01:06:10;-4.30;64.60
67557;DHT22;54387;53.526;49.300;2022-12-16T01:08:42;-4.30;64.60
67557;DHT22;54387;53.526;49.300;2022-12-16T01:11:18;-4.30;64.70
67557;DHT22;54387;53.526;49.300;2022-12-16T01:13:50;-4.30;64.60
67557;DHT22;54387;53.526;49.300;2022-12-16T01:16:21;-4.30;64.60
67557;DHT22;54387;53.526;49.300;2022-12-16T01:18:53;-4.30;64.50
67557;DHT22;54387;53.526;49.300;2022-12-16T01:21:26;-4.40;64.40
67557;DHT22;54387;53.526;49.300;2022-12-16T01:23:57;-4.40;64.40
67557;DHT22;54387;53.526;49.300;2022-12-16T01:26:29;-4.40;64.60
67557;DHT22;54387;53.526;49.300;2022-12-16T01:29:01;-4.30;64.60
67557;DHT22;54387;53.526;49.300;2022-12-16T01:31:32;-4.30;64.50
67557;DHT22;54387;53.526;49.300;2022-12-16T01:34:04;-4.20;65.10
67557;DHT22;54387;53.526;49.300;2022-12-16T01:36:35;-4.20;64.50
67557;DHT22;54387;53.526;49.300;2022-12-16T01:39:08;-4.20;64.40
67557;DHT22;54387;53.526;49.300;2022-12-16T01:41:39;-4.20;64.40
67557;DHT22;54387;53.526;49.300;2022-12-16T01:44:12;-4.20;64.20
67557;DHT22;54387;53.526;49.300;2022-12-16T01:46:44;-4.20;64.20
67557;DHT22;54387;53.526;49.300;2022-12-16T01:49:24;-4.30;64.20
67557;DHT22;54387;53.526;49.300;2022-12-16T01:51:57;-4.30;64.20
67557;DHT22;54387;53.526;49.300;2022-12-16T01:54:34;-4.30;64.20
67557;DHT22;54387;53.526;49.300;2022-12-16T01:57:08;-4.30;64.20
67557;DHT22;54387;53.526;49.300;2022-12-16T01:59:42;-4.30;64.10
67557;DHT22;54387;53.526;49.300;2022-12-16T02:02:14;-4.40;64.10
67557;DHT22;54387;53.526;49.300;2022-12-16T02:04:46;-4.40;64.00
67557;DHT22;54387;53.526;49.300;2022-12-16T02:16:00;-4.50;63.90
67557;DHT22;54387;53.526;49.300;2022-12-16T02:18:54;-4.50;63.90
67557;DHT22;54387;53.526;49.300;2022-12-16T02:21:42;-4.50;63.80
67557;DHT22;54387;53.526;49.300;2022-12-16T02:37:49;-4.60;63.80
67557;DHT22;54387;53.526;49.300;2022-12-16T02:40:26;-4.60;63.70
67557;DHT22;54387;53.526;49.300;2022-12-16T02:42:59;-4.60;63.80
67557;DHT22;54387;53.526;49.300;2022-12-16T02:45:32;-4.60;63.80
67557;DHT22;54387;53.526;49.300;2022-12-16T02:48:04;-4.60;63.70
67557;DHT22;54387;53.526;49.300;2022-12-16T02:50:38;-4.60;63.60
67557;DHT22;54387;53.526;49.300;2022-12-16T02:53:09;-4.60;63.60
67557;DHT22;54387;53.526;49.300;2022-12-16T03:03:39;-4.60;63.30
67557;DHT22;54387;53.526;49.300;2022-12-16T03:06:13;-4.60;63.30
67557;DHT22;54387;53.526;49.300;2022-12-16T03:08:48;-4.60;63.40
67557;DHT22;54387;53.526;49.300;2022-12-16T03:11:21;-4.60;63.30
67557;DHT22;54387;53.526;49.300;2022-12-16T03:13:54;-4.60;63.40
67557;DHT22;54387;53.526;49.300;2022-12-16T03:16:30;-4.60;63.20
67557;DHT22;54387;53.526;49.300;2022-12-16T03:19:06;-4.60;63.20
67557;DHT22;54387;53.526;49.300;2022-12-16T03:21:42;-4.60;63.10
67557;DHT22;54387;53.526;49.300;2022-12-16T03:24:16;-4.60;63.20
67557;DHT22;54387;53.526;49.300;2022-12-16T03:29:50;-4.60;63.10
67557;DHT22;54387;53.526;49.300;2022-12-16T03:32:24;-4.60;62.90
67557;DHT22;54387;53.526;49.300;2022-12-16T03:34:58;-4.60;62.90
67557;DHT22;54387;53.526;49.300;2022-12-16T03:37:30;-4.60;62.90
67557;DHT22;54387;53.526;49.300;2022-12-16T03:40:04;-4.60;62.80
67557;DHT22;54387;53.526;49.300;2022-12-16T03:42:36;-4.50;62.70
67557;DHT22;54387;53.526;49.300;2022-12-16T03:45:10;-4.50;62.80
67557;DHT22;54387;53.526;49.300;2022-12-16T03:47:47;-4.40;62.90
67557;DHT22;54387;53.526;49.300;2022-12-16T03:50:18;-4.40;62.80
67557;DHT22;54387;53.526;49.300;2022-12-16T03:52:51;-4.30;62.90
67557;DHT22;54387;53.526;49.300;2022-12-16T03:55:23;-4.20;62.90
67557;DHT22;54387;53.526;49.300;2022-12-16T03:57:54;-4.20;62.90
67557;DHT22;54387;53.526;49.300;2022-12-16T04:00:27;-4.20;62.80
67557;DHT22;54387;53.526;49.300;2022-12-16T04:02:58;-4.10;62.80
67557;DHT22;54387;53.526;49.300;2022-12-16T04:05:34;-4.10;62.80
67557;DHT22;54387;53.526;49.300;2022-12-16T04:08:05;-4.10;62.90
67557;DHT22;54387;53.526;49.300;2022-12-16T04:10:36;-4.00;62.90
67557;DHT22;54387;53.526;49.300;2022-12-16T04:13:26;-4.00;63.00
67557;DHT22;54387;53.526;49.300;2022-12-16T04:16:16;-3.90;63.00
67557;DHT22;54387;53.526;49.300;2022-12-16T04:19:08;-3.80;63.10
67557;DHT22;54387;53.526;49.300;2022-12-16T04:21:59;-3.80;63.00
67557;DHT22;54387;53.526;49.300;2022-12-16T04:24:49;-3.70;63.00
67557;DHT22;54387;53.526;49.300;2022-12-16T04:27:20;-3.70;62.90
67557;DHT22;54387;53.526;49.300;2022-12-16T04:29:54;-3.70;62.90
67557;DHT22;54387;53.526;49.300;2022-12-16T04:32:49;-3.70;62.90
67557;DHT22;54387;53.526;49.300;2022-12-16T04:35:40;-3.70;63.00
67557;DHT22;54387;53.526;49.300;2022-12-16T04:38:30;-3.60;63.20
67557;DHT22;54387;53.526;49.300;2022-12-16T04:41:20;-3.60;63.20
67557;DHT22;54387;53.526;49.300;2022-12-16T04:44:10;-3.60;63.20
67557;DHT22;54387;53.526;49.300;2022-12-16T04:47:00;-3.60;63.40
67557;DHT22;54387;53.526;49.300;2022-12-16T04:49:49;-3.50;63.40
67557;DHT22;54387;53.526;49.300;2022-12-16T04:52:39;-3.50;63.40
67557;DHT22;54387;53.526;49.300;2022-12-16T04:55:29;-3.50;63.40
67557;DHT22;54387;53.526;49.300;2022-12-16T04:58:19;-3.50;63.40
67557;DHT22;54387;53.526;49.300;2022-12-16T05:01:09;-3.40;63.50
67557;DHT22;54387;53.526;49.300;2022-12-16T05:03:58;-3.40;63.50
67557;DHT22;54387;53.526;49.300;2022-12-16T05:06:48;-3.40;63.50
67557;DHT22;54387;53.526;49.300;2022-12-16T05:09:38;-3.30;63.60
67557;DHT22;54387;53.526;49.300;2022-12-16T05:12:28;-3.20;63.60
67557;DHT22;54387;53.526;49.300;2022-12-16T05:15:17;-3.20;63.60
67557;DHT22;54387;53.526;49.300;2022-12-16T05:18:11;-3.10;63.60
67557;DHT22;54387;53.526;49.300;2022-12-16T05:21:01;-3.00;63.70
67557;DHT22;54387;53.526;49.300;2022-12-16T05:23:51;-3.00;63.60
67557;DHT22;54387;53.526;49.300;2022-12-16T05:26:41;-2.90;63.60
67557;DHT22;54387;53.526;49.300;2022-12-16T05:29:30;-2.90;63.50
67557;DHT22;54387;53.526;49.300;2022-12-16T05:32:20;-2.90;63.50
67557;DHT22;54387;53.526;49.300;2022-12-16T05:35:10;-2.90;63.50
67557;DHT22;54387;53.526;49.300;2022-12-16T05:38:00;-2.90;63.40
67557;DHT22;54387;53.526;49.300;2022-12-16T05:40:49;-2.90;63.40
67557;DHT22;54387;53.526;49.300;2022-12-16T05:43:39;-2.80;63.60
67557;DHT22;54387;53.526;49.300;2022-12-16T05:46:29;-2.80;63.60
67557;DHT22;54387;53.526;49.300;2022-12-16T05:49:19;-2.80;63.30
67557;DHT22;54387;53.526;49.300;2022-12-16T05:52:08;-2.80;63.20
67557;DHT22;54387;53.526;49.300;2022-12-16T05:54:58;-2.90;63.20
67557;DHT22;54387;53.526;49.300;2022-12-16T05:57:49;-3.00;63.20
67557;DHT22;54387;53.526;49.300;2022-12-16T06:00:49;-3.00;63.80
67557;DHT22;54387;53.526;49.300;2022-12-16T06:03:39;-3.00;63.20
67557;DHT22;54387;53.526;49.300;2022-12-16T06:06:29;-2.90;63.30
67557;DHT22;54387;53.526;49.300;2022-12-16T06:09:19;-2.90;63.80
67557;DHT22;54387;53.526;49.300;2022-12-16T06:12:09;-2.90;63.10
67557;DHT22;54387;53.526;49.300;2022-12-16T06:14:58;-2.90;63.10
67557;DHT22;54387;53.526;49.300;2022-12-16T06:17:49;-2.80;63.20
67557;DHT22;54387;53.526;49.300;2022-12-16T06:20:39;-2.80;63.20
67557;DHT22;54387;53.526;49.300;2022-12-16T06:23:28;-2.70;63.20
67557;DHT22;54387;53.526;49.300;2022-12-16T06:26:18;-2.60;63.10
67557;DHT22;54387;53.526;49.300;2022-12-16T06:29:08;-2.60;63.10
67557;DHT22;54387;53.526;49.300;2022-12-16T06:31:58;-2.50;63.00
67557;DHT22;54387;53.526;49.300;2022-12-16T06:34:47;-2.40;63.10
67557;DHT22;54387;53.526;49.300;2022-12-16T06:37:37;-2.40;62.60
67557;DHT22;54387;53.526;49.300;2022-12-16T06:40:27;-2.40;62.70
67557;DHT22;54387;53.526;49.300;2022-12-16T06:43:17;-2.40;62.90
67557;DHT22;54387;53.526;49.300;2022-12-16T06:46:07;-2.30;62.70
67557;DHT22;54387;53.526;49.300;2022-12-16T06:48:57;-2.30;62.60
67557;DHT22;54387;53.526;49.300;2022-12-16T06:51:47;-2.20;62.70
67557;DHT22;54387;53.526;49.300;2022-12-16T06:54:36;-2.20;62.60
67557;DHT22;54387;53.526;49.300;2022-12-16T06:57:26;-2.00;62.80
67557;DHT22;54387;53.526;49.300;2022-12-16T07:00:16;-1.90;62.70
67557;DHT22;54387;53.526;49.300;2022-12-16T07:03:06;-1.80;62.80
67557;DHT22;54387;53.526;49.300;2022-12-16T07:05:56;-1.70;62.80
67557;DHT22;54387;53.526;49.300;2022-12-16T07:08:45;-1.70;62.50
67557;DHT22;54387;53.526;49.300;2022-12-16T07:11:35;-1.70;62.50
67557;DHT22;54387;53.526;49.300;2022-12-16T07:14:25;-1.60;62.40
67557;DHT22;54387;53.526;49.300;2022-12-16T07:17:15;-1.60;62.40
67557;DHT22;54387;53.526;49.300;2022-12-16T07:20:05;-1.60;62.00
67557;DHT22;54387;53.526;49.300;2022-12-16T07:22:54;-1.60;61.90
67557;DHT22;54387;53.526;49.300;2022-12-16T07:25:44;-1.60;61.80
67557;DHT22;54387;53.526;49.300;2022-12-16T07:28:33;-1.60;61.70
67557;DHT22;54387;53.526;49.300;2022-12-16T07:31:23;-1.60;61.70
67557;DHT22;54387;53.526;49.300;2022-12-16T07:34:13;-1.60;61.20
67557;DHT22;54387;53.526;49.300;2022-12-16T07:37:20;-1.50;61.20
67557;DHT22;54387;53.526;49.300;2022-12-16T07:40:09;-1.50;61.20
67557;DHT22;54387;53.526;49.300;2022-12-16T07:42:59;-1.50;60.80
67557;DHT22;54387;53.526;49.300;2022-12-16T07:45:49;-1.50;59.90
67557;DHT22;54387;53.526;49.300;2022-12-16T07:48:39;-1.60;59.60
67557;DHT22;54387;53.526;49.300;2022-12-16T07:51:28;-1.60;59.60
67557;DHT22;54387;53.526;49.300;2022-12-16T07:54:18;-1.60;58.70
67557;DHT22;54387;53.526;49.300;2022-12-16T07:57:08;-1.60;58.60
67557;DHT22;54387;53.526;49.300;2022-12-16T07:59:57;-1.60;59.10
67557;DHT22;54387;53.526;49.300;2022-12-16T08:02:51;-1.50;59.40
67557;DHT22;54387;53.526;49.300;2022-12-16T08:05:42;-1.50;59.30
67557;DHT22;54387;53.526;49.300;2022-12-16T08:08:31;-1.50;58.10
67557;DHT22;54387;53.526;49.300;2022-12-16T08:11:22;-1.60;58.30
67557;DHT22;54387;53.526;49.300;2022-12-16T08:14:12;-1.60;57.70
67557;DHT22;54387;53.526;49.300;2022-12-16T08:17:02;-1.70;57.60
67557;DHT22;54387;53.526;49.300;2022-12-16T08:19:51;-1.80;56.60
67557;DHT22;54387;53.526;49.300;2022-12-16T08:22:41;-1.90;57.70
67557;DHT22;54387;53.526;49.300;2022-12-16T08:25:31;-1.80;58.60
67557;DHT22;54387;53.526;49.300;2022-12-16T08:28:21;-1.70;58.50
67557;DHT22;54387;53.526;49.300;2022-12-16T08:31:11;-1.60;58.00
67557;DHT22;54387;53.526;49.300;2022-12-16T08:34:01;-1.60;57.00
67557;DHT22;54387;53.526;49.300;2022-12-16T08:36:50;-1.70;56.80
67557;DHT22;54387;53.526;49.300;2022-12-16T08:39:40;-1.70;56.60
67557;DHT22;54387;53.526;49.300;2022-12-16T08:42:30;-1.70;57.20
67557;DHT22;54387;53.526;49.300;2022-12-16T08:45:20;-1.70;57.00
67557;DHT22;54387;53.526;49.300;2022-12-16T08:48:11;-1.60;56.90
67557;DHT22;54387;53.526;49.300;2022-12-16T08:51:20;-1.70;56.60
67557;DHT22;54387;53.526;49.300;2022-12-16T08:54:15;-1.70;57.10
67557;DHT22;54387;53.526;49.300;2022-12-16T08:57:05;-1.60;56.80
67557;DHT22;54387;53.526;49.300;2022-12-16T08:59:55;-1.60;56.80
67557;DHT22;54387;53.526;49.300;2022-12-16T09:02:45;-1.70;56.80
67557;DHT22;54387;53.526;49.300;2022-12-16T09:05:34;-1.70;56.80
67557;DHT22;54387;53.526;49.300;2022-12-16T09:08:25;-1.70;57.10
67557;DHT22;54387;53.526;49.300;2022-12-16T09:11:15;-1.70;57.30
67557;DHT22;54387;53.526;49.300;2022-12-16T09:14:04;-1.80;57.30
67557;DHT22;54387;53.526;49.300;2022-12-16T09:16:54;-1.70;57.30
67557;DHT22;54387;53.526;49.300;2022-12-16T09:19:44;-1.80;56.90
67557;DHT22;54387;53.526;49.300;2022-12-16T09:22:34;-1.90;57.40
67557;DHT22;54387;53.526;49.300;2022-12-16T09:25:23;-1.90;57.20
67557;DHT22;54387;53.526;49.300;2022-12-16T09:28:13;-1.90;57.40
67557;DHT22;54387;53.526;49.300;2022-12-16T09:31:03;-1.90;58.50
67557;DHT22;54387;53.526;49.300;2022-12-16T09:33:53;-1.80;57.90
67557;DHT22;54387;53.526;49.300;2022-12-16T09:36:43;-1.90;57.80
67557;DHT22;54387;53.526;49.300;2022-12-16T09:39:49;-2.00;58.10
67557;DHT22;54387;53.526;49.300;2022-12-16T09:45:37;-2.20;59.00
67557;DHT22;54387;53.526;49.300;2022-12-16T09:51:35;-2.20;59.10
67557;DHT22;54387;53.526;49.300;2022-12-16T09:54:26;-2.20;59.10
67557;DHT22;54387;53.526;49.300;2022-12-16T09:57:16;-2.20;59.10
67557;DHT22;54387;53.526;49.300;2022-12-16T10:00:11;-2.30;58.90
67557;DHT22;54387;53.526;49.300;2022-12-16T10:03:12;-2.30;59.10
67557;DHT22;54387;53.526;49.300;2022-12-16T10:09:28;-2.40;59.40
67557;DHT22;54387;53.526;49.300;2022-12-16T10:18:34;-2.20;59.50
67557;DHT22;54387;53.526;49.300;2022-12-16T10:21:32;-2.10;59.30
67557;DHT22;54387;53.526;49.300;2022-12-16T10:24:59;-2.10;59.30
67557;DHT22;54387;53.526;49.300;2022-12-16T10:27:42;-2.10;59.00
67557;DHT22;54387;53.526;49.300;2022-12-16T10:30:34;-2.20;59.40
67557;DHT22;54387;53.526;49.300;2022-12-16T10:33:25;-2.10;59.70
67557;DHT22;54387;53.526;49.300;2022-12-16T10:36:17;-2.10;59.60
67557;DHT22;54387;53.526;49.300;2022-12-16T10:39:39;-2.10;59.70
67557;DHT22;54387;53.526;49.300;2022-12-16T10:42:30;-2.10;59.80
67557;DHT22;54387;53.526;49.300;2022-12-16T10:45:24;-2.10;59.90
67557;DHT22;54387;53.526;49.300;2022-12-16T10:48:18;-2.00;59.80
67557;DHT22;54387;53.526;49.300;2022-12-16T10:51:15;-2.00;59.60
67557;DHT22;54387;53.526;49.300;2022-12-16T10:57:36;-1.90;59.50
67557;DHT22;54387;53.526;49.300;2022-12-16T11:03:30;-1.90;59.00
67557;DHT22;54387;53.526;49.300;2022-12-16T11:12:22;-1.80;59.20
67557;DHT22;54387;53.526;49.300;2022-12-16T11:15:25;-1.70;59.10
67557;DHT22;54387;53.526;49.300;2022-12-16T11:18:17;-1.70;58.80
67557;DHT22;54387;53.526;49.300;2022-12-16T11:21:17;-1.70;59.10
67557;DHT22;54387;53.526;49.300;2022-12-16T11:27:14;-1.70;58.90
67557;DHT22;54387;53.526;49.300;2022-12-16T11:30:25;-1.80;59.10
67557;DHT22;54387;53.526;49.300;2022-12-16T11:36:20;-1.80;59.50
67557;DHT22;54387;53.526;49.300;2022-12-16T11:39:18;-1.80;59.40
67557;DHT22;54387;53.526;49.300;2022-12-16T11:42:19;-1.90;59.30
67557;DHT22;54387;53.526;49.300;2022-12-16T11:45:13;-2.10;59.60
67557;DHT22;54387;53.526;49.300;2022-12-16T11:51:13;-2.10;60.10
67557;DHT22;54387;53.526;49.300;2022-12-16T11:57:16;-2.10;59.90
67557;DHT22;54387;53.526;49.300;2022-12-16T12:00:08;-2.20;60.00
67557;DHT22;54387;53.526;49.300;2022-12-16T12:03:06;-2.30;60.20
67557;DHT22;54387;53.526;49.300;2022-12-16T12:06:20;-2.30;60.30
67557;DHT22;54387;53.526;49.300;2022-12-16T12:15:11;-2.40;60.70
67557;DHT22;54387;53.526;49.300;2022-12-16T12:21:20;-2.40;61.00
67557;DHT22;54387;53.526;49.300;2022-12-16T12:27:10;-2.30;61.00
67557;DHT22;54387;53.526;49.300;2022-12-16T12:39:12;-2.20;60.90
67557;DHT22;54387;53.526;49.300;2022-12-16T12:47:58;-2.10;60.90
67557;DHT22;54387;53.526;49.300;2022-12-16T12:54:04;-2.10;60.90
67557;DHT22;54387;53.526;49.300;2022-12-16T12:56:58;-2.10;60.90
67557;DHT22;54387;53.526;49.300;2022-12-16T12:59:55;-2.10;61.00
67557;DHT22;54387;53.526;49.300;2022-12-16T13:05:42;-2.10;61.20
67557;DHT22;54387;53.526;49.300;2022-12-16T13:08:43;-2.10;61.30
67557;DHT22;54387;53.526;49.300;2022-12-16T13:11:34;-2.10;61.40
67557;DHT22;54387;53.526;49.300;2022-12-16T13:17:20;-2.00;61.60
67557;DHT22;54387;53.526;49.300;2022-12-16T13:23:38;-2.00;61.40
67557;DHT22;54387;53.526;49.300;2022-12-16T13:26:29;-1.90;61.40
67557;DHT22;54387;53.526;49.300;2022-12-16T13:29:28;-1.90;61.40
67557;DHT22;54387;53.526;49.300;2022-12-16T13:32:20;-1.90;61.40
67557;DHT22;54387;53.526;49.300;2022-12-16T13:38:01;-1.90;61.20
67557;DHT22;54387;53.526;49.300;2022-12-16T13:40:59;-1.80;61.30
67557;DHT22;54387;53.526;49.300;2022-12-16T13:43:50;-1.80;61.30
67557;DHT22;54387;53.526;49.300;2022-12-16T13:46:50;-1.80;61.30
67557;DHT22;54387;53.526;49.300;2022-12-16T13:49:47;-1.70;61.30
67557;DHT22;54387;53.526;49.300;2022-12-16T13:56:18;-1.70;61.00
67557;DHT22;54387;53.526;49.300;2022-12-16T14:01:53;-1.90;61.10
67557;DHT22;54387;53.526;49.300;2022-12-16T14:04:47;-1.90;61.20
67557;DHT22;54387;53.526;49.300;2022-12-16T14:07:39;-1.90;61.30
67557;DHT22;54387;53.526;49.300;2022-12-16T14:10:30;-1.90;61.30
67557;DHT22;54387;53.526;49.300;2022-12-16T14:19:37;-1.80;61.50
67557;DHT22;54387;53.526;49.300;2022-12-16T14:25:19;-1.90;61.50
67557;DHT22;54387;53.526;49.300;2022-12-16T14:31:11;-1.80;61.60
67557;DHT22;54387;53.526;49.300;2022-12-16T14:34:03;-1.80;61.60
67557;DHT22;54387;53.526;49.300;2022-12-16T14:36:53;-1.90;61.80
67557;DHT22;54387;53.526;49.300;2022-12-16T14:39:47;-1.90;61.70
67557;DHT22;54387;53.526;49.300;2022-12-16T14:42:38;-1.90;61.80
67557;DHT22;54387;53.526;49.300;2022-12-16T14:45:29;-1.80;61.90
67557;DHT22;54387;53.526;49.300;2022-12-16T14:57:07;-1.80;61.90
67557;DHT22;54387;53.526;49.300;2022-12-16T15:00:10;-1.80;62.00
67557;DHT22;54387;53.526;49.300;2022-12-16T15:06:05;-1.90;62.20
67557;DHT22;54387;53.526;49.300;2022-12-16T15:08:57;-1.80;62.20
67557;DHT22;54387;53.526;49.300;2022-12-16T15:11:51;-1.80;62.20
67557;DHT22;54387;53.526;49.300;2022-12-16T15:14:42;-1.70;62.20
67557;DHT22;54387;53.526;49.300;2022-12-16T15:17:47;-1.70;62.10
67557;DHT22;54387;53.526;49.300;2022-12-16T15:20:40;-1.70;62.20
67557;DHT22;54387;53.526;49.300;2022-12-16T15:23:32;-1.70;62.20
67557;DHT22;54387;53.526;49.300;2022-12-16T15:26:23;-1.70;62.10
67557;DHT22;54387;53.526;49.300;2022-12-16T15:41:13;-1.50;62.20
67557;DHT22;54387;53.526;49.300;2022-12-16T15:47:16;-1.40;62.20
67557;DHT22;54387;53.526;49.300;2022-12-16T15:50:09;-1.30;62.20
67557;DHT22;54387;53.526;49.300;2022-12-16T15:56:26;-1.30;62.20
67557;DHT22;54387;53.526;49.300;2022-12-16T15:59:32;-1.30;62.20
67557;DHT22;54387;53.526;49.300;2022-12-16T16:02:22;-1.30;62.30
67557;DHT22;54387;53.526;49.300;2022-12-16T16:05:22;-1.30;62.20
67557;DHT22;54387;53.526;49.300;2022-12-16T16:08:12;-1.20;62.40
67557;DHT22;54387;53.526;49.300;2022-12-16T16:11:02;-1.10;62.40
67557;DHT22;54387;53.526;49.300;2022-12-16T16:13:52;-1.00;62.20
67557;DHT22;54387;53.526;49.300;2022-12-16T16:16:42;-1.00;62.10
67557;DHT22;54387;53.526;49.300;2022-12-16T16:19:32;-1.00;62.20
67557;DHT22;54387;53.526;49.300;2022-12-16T16:22:21;-1.00;62.00
67557;DHT22;54387;53.526;49.300;2022-12-16T16:25:11;-1.00;62.00
67557;DHT22;54387;53.526;49.300;2022-12-16T16:28:01;-1.00;62.00
67557;DHT22;54387;53.526;49.300;2022-12-16T16:30:58;-0.90;62.10
67557;DHT22;54387;53.526;49.300;2022-12-16T16:33:48;-0.90;62.10
67557;DHT22;54387;53.526;49.300;2022-12-16T16:36:38;-0.80;62.30
67557;DHT22;54387;53.526;49.300;2022-12-16T16:39:28;-0.80;62.10
67557;DHT22;54387;53.526;49.300;2022-12-16T16:42:17;-0.80;62.00
67557;DHT22;54387;53.526;49.300;2022-12-16T16:45:07;-0.80;62.10
67557;DHT22;54387;53.526;49.300;2022-12-16T16:48:02;-0.80;62.10
67557;DHT22;54387;53.526;49.300;2022-12-16T16:50:54;-0.80;62.20
67557;DHT22;54387;53.526;49.300;2022-12-16T16:53:44;-0.80;62.20
67557;DHT22;54387;53.526;49.300;2022-12-16T16:56:35;-0.90;62.20
67557;DHT22;54387;53.526;49.300;2022-12-16T16:59:25;-0.90;62.30
67557;DHT22;54387;53.526;49.300;2022-12-16T17:02:19;-0.90;62.30
67557;DHT22;54387;53.526;49.300;2022-12-16T17:05:10;-1.00;62.30
67557;DHT22;54387;53.526;49.300;2022-12-16T17:07:59;-1.00;62.50
67557;DHT22;54387;53.526;49.300;2022-12-16T17:10:49;-0.90;62.50
67557;DHT22;54387;53.526;49.300;2022-12-16T17:13:39;-0.80;62.50
67557;DHT22;54387;53.526;49.300;2022-12-16T17:16:29;-0.80;62.60
67557;DHT22;54387;53.526;49.300;2022-12-16T17:19:19;-0.80;62.60
67557;DHT22;54387;53.526;49.300;2022-12-16T17:22:09;-0.70;62.60
67557;DHT22;54387;53.526;49.300;2022-12-16T17:24:59;-0.70;62.60
67557;DHT22;54387;53.526;49.300;2022-12-16T17:27:48;-0.70;62.60
67557;DHT22;54387;53.526;49.300;2022-12-16T17:30:38;-0.60;62.60
67557;DHT22;54387;53.526;49.300;2022-12-16T17:33:28;-0.60;62.60
67557;DHT22;54387;53.526;49.300;2022-12-16T17:36:18;-0.60;62.50
67557;DHT22;54387;53.526;49.300;2022-12-16T17:39:08;-0.60;62.50
67557;DHT22;54387;53.526;49.300;2022-12-16T17:41:58;-0.70;62.40
67557;DHT22;54387;53.526;49.300;2022-12-16T17:44:47;-0.80;62.20
67557;DHT22;54387;53.526;49.300;2022-12-16T17:47:37;-0.80;62.20
67557;DHT22;54387;53.526;49.300;2022-12-16T17:50:27;-0.80;62.10
67557;DHT22;54387;53.526;49.300;2022-12-16T17:53:17;-0.80;62.10
67557;DHT22;54387;53.526;49.300;2022-12-16T17:56:11;-0.80;62.00
67557;DHT22;54387;53.526;49.300;2022-12-16T17:59:00;-0.80;61.90
67557;DHT22;54387;53.526;49.300;2022-12-16T18:01:50;-0.80;62.00
67557;DHT22;54387;53.526;49.300;2022-12-16T18:04:40;-0.80;62.10
67557;DHT22;54387;53.526;49.300;2022-12-16T18:07:30;-0.80;62.10
67557;DHT22;54387;53.526;49.300;2022-12-16T18:10:19;-0.70;62.20
67557;DHT22;54387;53.526;49.300;2022-12-16T18:13:09;-0.60;62.40
67557;DHT22;54387;53.526;49.300;2022-12-16T18:15:59;-0.60;62.40
67557;DHT22;54387;53.526;49.300;2022-12-16T18:18:59;-0.50;62.40
67557;DHT22;54387;53.526;49.300;2022-12-16T18:21:49;-0.40;62.20
67557;DHT22;54387;53.526;49.300;2022-12-16T18:24:39;-0.50;62.20
67557;DHT22;54387;53.526;49.300;2022-12-16T18:27:28;-0.40;62.30
67557;DHT22;54387;53.526;49.300;2022-12-16T18:30:18;-0.40;62.20
67557;DHT22;54387;53.526;49.300;2022-12-16T18:33:08;-0.40;62.30
67557;DHT22;54387;53.526;49.300;2022-12-16T18:35:58;-0.40;62.30
67557;DHT22;54387;53.526;49.300;2022-12-16T18:38:47;-0.30;62.40
67557;DHT22;54387;53.526;49.300;2022-12-16T18:41:42;-0.30;62.30
67557;DHT22;54387;53.526;49.300;2022-12-16T18:44:31;-0.30;62.30
67557;DHT22;54387;53.526;49.300;2022-12-16T18:47:21;-0.30;62.30
67557;DHT22;54387;53.526;49.300;2022-12-16T18:50:11;-0.30;62.20
67557;DHT22;54387;53.526;49.300;2022-12-16T18:53:01;-0.30;62.10
67557;DHT22;54387;53.526;49.300;2022-12-16T18:56:01;-0.40;62.30
67557;DHT22;54387;53.526;49.300;2022-12-16T18:58:51;-0.50;62.40
67557;DHT22;54387;53.526;49.300;2022-12-16T19:01:41;-0.50;62.40
67557;DHT22;54387;53.526;49.300;2022-12-16T19:04:31;-0.40;62.50
67557;DHT22;54387;53.526;49.300;2022-12-16T19:07:21;-0.40;62.50
67557;DHT22;54387;53.526;49.300;2022-12-16T19:10:10;-0.40;62.50
67557;DHT22;54387;53.526;49.300;2022-12-16T19:13:00;-0.40;62.70
67557;DHT22;54387;53.526;49.300;2022-12-16T19:15:53;-0.30;62.80
67557;DHT22;54387;53.526;49.300;2022-12-16T19:18:43;-0.30;62.60
67557;DHT22;54387;53.526;49.300;2022-12-16T19:21:33;-0.20;62.60
67557;DHT22;54387;53.526;49.300;2022-12-16T19:24:23;-0.20;62.60
67557;DHT22;54387;53.526;49.300;2022-12-16T19:27:13;-0.30;62.50
67557;DHT22;54387;53.526;49.300;2022-12-16T19:30:03;-0.30;62.60
67557;DHT22;54387;53.526;49.300;2022-12-16T19:32:53;-0.20;62.50
67557;DHT22;54387;53.526;49.300;2022-12-16T19:35:42;-0.20;62.50
67557;DHT22;54387;53.526;49.300;2022-12-16T19:38:32;-0.20;62.50
67557;DHT22;54387;53.526;49.300;2022-12-16T19:41:22;-0.30;62.60
67557;DHT22;54387;53.526;49.300;2022-12-16T19:44:12;-0.30;62.60
67557;DHT22;54387;53.526;49.300;2022-12-16T19:47:02;-0.20;62.70
67557;DHT22;54387;53.526;49.300;2022-12-16T19:49:51;-0.20;62.70
67557;DHT22;54387;53.526;49.300;2022-12-16T19:52:41;-0.20;62.70
67557;DHT22;54387;53.526;49.300;2022-12-16T19:55:31;-0.20;62.60
67557;DHT22;54387;53.526;49.300;2022-12-16T19:58:21;-0.20;62.60
67557;DHT22;54387;53.526;49.300;2022-12-16T20:01:11;-0.10;62.80
67557;DHT22;54387;53.526;49.300;2022-12-16T20:04:02;-0.10;62.70